Nur fliegen ist schöner ....

Willkommen beim Flugservice Bautzen GmbH

Wir sind eine nach europäischen Richtlinien zugelassene Flugschule und lizenziertes Luftfahrtunternehmen. Bei uns können sie nicht nur Rundflüge über die Oberlausitz oder Sachsen buchen, sondern in unserer Flugschule selber das Fliegen erlernen. Erfahrene Fluglehrer stehen Ihnen dabei zur Seite.

Wir bieten Ihnen außerdem spezielle Flüge zur Vermessung oder Fotoflüge für Luftbildaufnahmen an. In Zusammenarbeit mit dem Fallschirmsportclub Dresden und dem Cottbuser Fallschirmsportclub setzen wir am Flugplatz Bautzen und Neuhausen Fallschirmspringer ab.
Schauen Sie sich in Ruhe bei uns um und wenn Sie Fragen haben oder weitere Informationen benötigen, scheuen Sie sich nicht Kontakt mit uns aufzunehmen.

Gutscheine für Rundflüge und Tandemsprünge können Sie ganz leicht auch online in unserem Shop erwerben.

Terminkalender

Letzter Monat November 2019 Nächster Monat
Mo Di Mi Do Fr Sa So
week 44 1 2 3
week 45 4 5 6 7 8 9 10
week 46 11 12 13 14 15 16 17
week 47 18 19 20 21 22 23 24
week 48 25 26 27 28 29 30

Flugwetterinfo

[Quelle: ADDS]
METAR
EDDC 141250Z 12008KT CAVOK 06/01 Q1008 NOSIG =
EDDC 141100Z 1412/1512 14010KT 9999 FEW020 BECMG 1503/1507 12015G25KT
TAF
EDDC 141100Z 1412/1512 14010KT 9999 FEW020 BECMG 1503/1507 12015G25KT =
SR / SS: 06:16 / 15:15 UTC (EDAB Flugplatz Bautzen 2019-11-14)

Öffnungszeiten

des Flugplatzes Bautzen erfahren Sie hier:

flugplatz bautzen logo
Flugservice Bautzen GmbH, Kornmarkt 34, 02625 Bautzen  Telefon: +49 (3591) 211105, Telefax: +49 (3591) 274512, E-Mail:  flugservice(at)fsbautzen.de